Terminal Aerodrome Forecast
Issued by NWS

Home | Current Version | Previous Version | Graphics & Text | Print | Product List | Glossary On
Versions: 1 2 3 4 5 6 7 8 9 10 11 12 13 14 15 16
422
FTUS43 KMPX 280520
TAFRNH
TAF
KRNH 280520Z 2806/2906 00000KT 1/4SM FG VV001
      TEMPO 2808/2812 2SM BR OVC004
     FM281300 14003KT 4SM BR SCT005 BKN012
     FM281500 14004KT P6SM SCT020 BKN200
     FM281900 18008KT P6SM SCT250=

USA.gov is the U.S. government's official web portal to all federal, state and local government web resources and services.